Time;durP1;ratioP1;P1;durP2;ratioP2;P2;SDS_P1;SDS_P2;PMS_P1;PMS_P2;Temp;Humidity;BMP_temperature;BMP_pressure;BME280_temperature;BME280_humidity;BME280_pressure;Samples;Min_cycle;Max_cycle;Signal;HPM_P1;HPM_P2
2022/05/13 00:02:47;;;;;;;1.63;1.53;;;;;;;18.63;58.37;96991.88;10488046;28;20036;-21
2022/05/13 00:07:47;;;;;;;2.20;2.00;;;;;;;18.64;58.30;96994.44;10452015;28;20040;-23
2022/05/13 00:12:47;;;;;;;2.70;2.07;;;;;;;18.83;59.96;96998.72;10450747;28;20033;-22
2022/05/13 00:17:48;;;;;;;4.30;2.67;;;;;;;19.04;59.04;97008.06;10451173;28;20036;-21
2022/05/13 00:22:52;;;;;;;2.40;1.90;;;;;;;19.00;58.38;97006.41;10468391;28;20290;-21
2022/05/13 00:27:58;;;;;;;2.20;1.65;;;;;;;18.82;58.01;97003.81;10450929;28;20064;-21
2022/05/13 00:32:59;;;;;;;1.73;1.52;;;;;;;18.74;58.08;96998.69;10449959;28;20044;-22
2022/05/13 00:37:59;;;;;;;2.15;1.60;;;;;;;18.70;58.13;96996.13;10450081;28;20155;-22
2022/05/13 00:43:04;;;;;;;3.20;1.60;;;;;;;18.68;57.97;96993.59;10449455;28;20131;-21
2022/05/13 00:48:05;;;;;;;2.28;1.98;;;;;;;18.67;58.07;96996.97;10457024;28;20178;-21
2022/05/13 00:53:06;;;;;;;2.45;1.70;;;;;;;18.66;58.42;96999.53;10488593;28;20056;-21
2022/05/13 00:58:13;;;;;;;1.63;1.52;;;;;;;18.65;58.26;96997.81;10450011;28;20037;-22
2022/05/13 01:03:14;;;;;;;2.05;1.85;;;;;;;18.64;58.35;96986.81;10459818;28;20513;-21
2022/05/13 01:08:14;;;;;;;1.60;1.50;;;;;;;18.65;58.20;96978.38;10449146;28;20035;-23
2022/05/13 01:13:23;;;;;;;3.35;2.60;;;;;;;18.81;60.12;96979.25;10448888;28;20051;-22
2022/05/13 01:18:36;;;;;;;2.50;2.00;;;;;;;19.03;59.27;96983.56;10448955;28;20037;-22
2022/05/13 01:23:40;;;;;;;2.15;1.90;;;;;;;18.96;58.33;96980.16;10467208;28;20021;-21
2022/05/13 01:28:52;;;;;;;2.42;2.17;;;;;;;18.81;57.93;96981.78;10449385;28;20111;-21
2022/05/13 01:33:53;;;;;;;1.67;1.38;;;;;;;18.71;57.91;96978.41;10453509;28;20029;-21
2022/05/13 01:38:55;;;;;;;1.90;1.70;;;;;;;18.69;58.14;96984.31;10457036;28;20521;-21
2022/05/13 01:43:56;;;;;;;2.00;1.60;;;;;;;18.64;58.10;96973.28;10456694;28;20419;-22
2022/05/13 01:48:57;;;;;;;1.77;1.60;;;;;;;18.67;58.25;96973.31;10456734;28;20041;-22
2022/05/13 01:53:57;;;;;;;1.67;1.52;;;;;;;18.65;58.15;96972.44;10456139;28;20029;-23
2022/05/13 01:58:57;;;;;;;1.48;1.38;;;;;;;18.66;58.27;96974.16;10457113;28;20028;-23
2022/05/13 02:03:58;;;;;;;2.43;1.83;;;;;;;18.65;58.20;96975.84;10486263;28;20032;-22
2022/05/13 02:08:58;;;;;;;1.50;1.40;;;;;;;18.64;58.25;96960.59;10488189;28;20033;-22
2022/05/13 02:13:59;;;;;;;3.25;2.40;;;;;;;18.83;60.12;96968.28;10455473;28;20295;-22
2022/05/13 02:18:59;;;;;;;3.33;2.08;;;;;;;19.05;59.29;96959.03;10455273;28;20480;-22
2022/05/13 02:24:00;;;;;;;1.80;1.63;;;;;;;18.94;57.97;96940.41;10473662;28;20035;-21
2022/05/13 02:29:01;;;;;;;2.05;1.73;;;;;;;18.83;57.93;96958.13;10455348;28;20419;-21
2022/05/13 02:34:01;;;;;;;1.63;1.52;;;;;;;18.76;58.04;96964.03;10455151;28;20040;-23
2022/05/13 02:39:02;;;;;;;1.80;1.40;;;;;;;18.73;58.10;96971.63;10454915;28;20041;-23
2022/05/13 02:44:03;;;;;;;2.15;1.65;;;;;;;18.69;58.21;96964.88;10452936;28;20066;-21
2022/05/13 02:49:03;;;;;;;2.05;1.65;;;;;;;18.61;58.06;96948.78;10453933;28;20043;-21
2022/05/13 02:54:04;;;;;;;1.50;1.40;;;;;;;18.67;58.18;96956.41;10453737;28;20395;-22
2022/05/13 02:59:05;;;;;;;1.70;1.60;;;;;;;18.66;58.01;96949.63;10454574;28;20033;-21
2022/05/13 03:04:05;;;;;;;1.38;1.23;;;;;;;18.66;58.16;96943.72;10457922;28;20029;-22
2022/05/13 03:09:06;;;;;;;1.63;1.53;;;;;;;18.66;58.14;96936.94;10462594;28;20056;-22
2022/05/13 03:14:06;;;;;;;3.30;2.43;;;;;;;18.73;60.46;96941.19;10493058;28;20287;-22
2022/05/13 03:19:06;;;;;;;2.00;1.80;;;;;;;19.00;59.16;96940.41;10474318;28;20411;-22
2022/05/13 03:24:08;;;;;;;1.30;1.20;;;;;;;19.08;58.17;96938.75;10480405;28;20028;-21
2022/05/13 03:29:08;;;;;;;2.00;1.80;;;;;;;18.88;57.75;96945.47;10494338;28;20653;-21
2022/05/13 03:34:09;;;;;;;2.23;1.73;;;;;;;18.79;57.94;96940.38;10474005;28;20025;-22
2022/05/13 03:39:09;;;;;;;1.75;1.60;;;;;;;18.62;58.12;96922.59;10489815;28;20028;-22
2022/05/13 03:44:10;;;;;;;3.13;1.50;;;;;;;18.71;58.08;96932.75;10477295;28;20029;-21
2022/05/13 03:49:11;;;;;;;1.63;1.30;;;;;;;18.69;58.30;96933.59;10452034;28;20311;-21
2022/05/13 03:54:11;;;;;;;1.52;1.42;;;;;;;18.71;58.29;96934.44;10464674;28;20028;-22
2022/05/13 03:59:12;;;;;;;1.83;1.60;;;;;;;18.70;57.99;96941.22;10488825;28;20040;-22
2022/05/13 04:04:12;;;;;;;1.70;1.50;;;;;;;18.71;58.32;96939.50;10492796;28;20434;-21
2022/05/13 04:09:13;;;;;;;1.50;1.25;;;;;;;18.69;58.11;96933.59;10480191;28;20287;-21
2022/05/13 04:19:32;;;;;;;2.30;2.10;;;;;;;18.97;59.15;96940.41;10450838;28;20415;-23
2022/05/13 04:24:33;;;;;;;1.80;1.70;;;;;;;19.11;58.70;96944.66;10468816;28;20025;-22
2022/05/13 04:29:34;;;;;;;1.70;1.23;;;;;;;18.96;57.60;96961.53;10450582;28;20033;-22
2022/05/13 04:34:34;;;;;;;1.30;1.20;;;;;;;18.86;58.20;96959.84;10449953;28;20040;-22
2022/05/13 04:39:35;;;;;;;1.93;1.20;;;;;;;18.77;57.74;96942.06;10463721;28;20115;-22
2022/05/13 04:44:35;;;;;;;1.38;1.27;;;;;;;18.79;58.04;96958.97;10467042;28;20047;-21
2022/05/13 04:49:36;;;;;;;3.50;1.53;;;;;;;18.70;58.11;96947.97;10449866;28;20032;-22
2022/05/13 04:54:36;;;;;;;3.17;2.67;;;;;;;18.79;58.57;96958.13;10449001;28;20033;-22
2022/05/13 04:59:36;;;;;;;1.80;1.40;;;;;;;18.78;58.22;96969.13;10449675;28;20098;-21
2022/05/13 05:04:37;;;;;;;1.40;1.30;;;;;;;18.77;58.21;96960.66;10466916;28;20283;-22
2022/05/13 05:09:38;;;;;;;1.80;1.50;;;;;;;18.77;58.57;96952.22;10447090;28;20757;-22
2022/05/13 05:14:38;;;;;;;4.57;1.80;;;;;;;18.78;58.16;96969.13;10447822;28;20033;-21
2022/05/13 05:19:39;;;;;;;3.37;1.97;;;;;;;18.87;60.27;96948.84;10448754;28;20037;-21
2022/05/13 05:24:39;;;;;;;3.60;2.10;;;;;;;19.13;59.32;96967.50;10467037;28;20187;-22
2022/05/13 05:29:42;;;;;;;5.30;2.03;;;;;;;19.07;58.95;96970.00;10449630;28;20275;-22
2022/05/13 05:34:43;;;;;;;3.55;1.60;;;;;;;18.90;58.21;96964.91;10447991;28;20056;-23
2022/05/13 05:39:43;;;;;;;1.77;1.67;;;;;;;18.85;58.32;96969.13;10463039;28;20049;-22
2022/05/13 05:44:43;;;;;;;8.43;1.90;;;;;;;18.83;58.16;96970.00;10448992;28;20036;-21
2022/05/13 05:49:44;;;;;;;5.50;1.52;;;;;;;18.81;58.17;96969.09;10448265;28;20041;-23
2022/05/13 06:00:06;;;;;;;1.98;1.20;;;;;;;18.79;58.12;96976.75;10448607;28;20029;-21
2022/05/13 06:05:06;;;;;;;1.83;1.70;;;;;;;18.79;58.25;96981.81;10487955;28;20025;-21
2022/05/13 06:10:07;;;;;;;2.33;1.38;;;;;;;18.79;58.24;96988.56;10478477;28;20037;-22
2022/05/13 06:15:08;;;;;;;3.67;1.45;;;;;;;18.73;58.20;96988.53;10487774;28;20041;-22
2022/05/13 06:20:09;;;;;;;3.83;2.15;;;;;;;18.89;60.29;96990.28;10463150;28;20033;-22
2022/05/13 06:25:12;;;;;;;2.90;1.73;;;;;;;19.11;59.58;96997.97;10473774;28;20480;-21
2022/05/13 06:30:17;;;;;;;3.13;1.52;;;;;;;19.10;57.89;97011.47;10455692;28;20116;-22
2022/05/13 06:35:19;;;;;;;2.90;1.20;;;;;;;18.91;57.95;97011.44;10479660;28;20419;-22
2022/05/13 06:40:22;;;;;;;1.75;1.50;;;;;;;18.84;58.09;97018.16;10476123;28;20039;-22
2022/05/13 06:45:22;;;;;;;1.30;1.20;;;;;;;18.77;58.07;97013.91;10454203;28;20421;-22
2022/05/13 06:50:23;;;;;;;1.83;1.50;;;;;;;18.78;57.99;97030.00;10454562;28;20052;-21
2022/05/13 06:55:24;;;;;;;2.03;1.38;;;;;;;18.74;58.17;97034.19;10454009;28;20045;-21
2022/05/13 07:00:24;;;;;;;2.72;1.30;;;;;;;18.74;58.36;97031.66;10455287;28;20056;-21
2022/05/13 07:05:25;;;;;;;2.78;1.30;;;;;;;18.76;58.28;97037.59;10492736;28;20101;-22
2022/05/13 07:10:25;;;;;;;3.92;1.83;;;;;;;18.74;58.16;97046.88;10452377;28;20497;-21
2022/05/13 07:15:26;;;;;;;2.20;2.00;;;;;;;18.75;58.40;97060.44;10452976;28;20052;-21
2022/05/13 07:20:27;;;;;;;7.70;3.25;;;;;;;18.82;61.01;97052.00;10453189;28;20040;-21
2022/05/13 07:25:31;;;;;;;4.05;2.75;;;;;;;19.08;61.15;97046.16;10492387;28;20039;-22
2022/05/13 07:30:31;;;;;;;4.70;2.08;;;;;;;19.08;59.02;97051.22;10493912;28;20445;-21
2022/05/13 07:35:32;;;;;;;3.55;2.45;;;;;;;18.97;58.20;97072.34;10464316;28;20041;-21
2022/05/13 07:45:53;;;;;;;16.20;5.55;;;;;;;18.86;59.04;97079.06;10452023;28;20560;-22
2022/05/13 07:50:54;;;;;;;9.23;6.17;;;;;;;18.86;59.20;97085.00;10451894;28;20085;-22
2022/05/13 07:55:54;;;;;;;8.87;3.40;;;;;;;18.87;59.46;97085.84;10451306;28;20040;-22
2022/05/13 08:00:55;;;;;;;7.25;3.35;;;;;;;18.81;59.25;97088.34;10458191;28;20281;-22
2022/05/13 08:06:02;;;;;;;8.88;5.18;;;;;;;18.79;58.98;97087.50;10466080;28;20552;-21
2022/05/13 08:11:05;;;;;;;14.52;6.38;;;;;;;18.82;61.10;97092.59;10476265;28;20584;-22
2022/05/13 08:16:09;;;;;;;9.10;3.92;;;;;;;18.79;59.06;97090.88;10492594;28;20123;-21
2022/05/13 08:21:10;;;;;;;14.55;5.28;;;;;;;18.78;59.37;97096.81;10465910;28;20032;-22
2022/05/13 08:26:11;;;;;;;18.35;8.85;;;;;;;19.06;61.69;97092.66;10490622;28;20029;-22
2022/05/13 08:31:14;;;;;;;20.45;8.95;;;;;;;19.20;61.17;97116.44;10464947;28;20049;-22
2022/05/13 08:36:15;;;;;;;20.83;6.25;;;;;;;18.97;61.37;97118.88;10449935;28;20045;-23
2022/05/13 08:41:26;;;;;;;35.45;10.82;;;;;;;18.81;60.88;97117.09;10449396;28;20438;-22
2022/05/13 08:46:35;;;;;;;27.80;10.20;;;;;;;18.86;59.82;97122.19;10449361;28;20048;-22
2022/05/13 08:51:47;;;;;;;14.52;5.55;;;;;;;18.83;59.07;97124.72;10449643;28;20487;-22
2022/05/13 08:56:51;;;;;;;7.97;3.50;;;;;;;18.81;58.98;97132.31;10449408;28;20128;-22
2022/05/13 09:01:55;;;;;;;12.15;6.40;;;;;;;18.79;59.08;97128.06;10463865;28;20062;-21
2022/05/13 09:06:59;;;;;;;13.25;6.47;;;;;;;18.82;59.08;97133.19;10489454;28;20032;-21
2022/05/13 09:12:10;;;;;;;33.33;17.90;;;;;;;18.84;59.63;97136.56;10458831;28;20037;-21
2022/05/13 09:17:31;;;;;;;9.63;4.55;;;;;;;18.76;58.94;97140.75;10451467;28;20484;-21
2022/05/13 09:22:46;;;;;;;17.48;7.82;;;;;;;18.79;58.89;97154.31;10474904;28;20554;-21
2022/05/13 09:27:50;;;;;;;14.13;6.03;;;;;;;19.05;60.81;97167.09;10478994;28;20488;-21
2022/05/13 09:32:50;;;;;;;9.27;5.05;;;;;;;19.17;59.16;97167.19;10483092;28;20041;-21
2022/05/13 09:37:51;;;;;;;9.10;3.58;;;;;;;18.98;58.40;97165.38;10491637;28;20399;-21
2022/05/13 09:42:54;;;;;;;6.30;3.60;;;;;;;18.88;58.38;97158.56;10449242;28;20091;-21
2022/05/13 09:48:18;;;;;;;8.45;4.38;;;;;;;18.83;58.19;97165.31;10451774;28;20328;-22
2022/05/13 09:53:21;;;;;;;9.50;4.45;;;;;;;18.82;58.65;97168.69;10490631;28;20120;-21
2022/05/13 09:58:33;;;;;;;6.38;4.20;;;;;;;18.79;58.60;97158.50;10460265;28;20055;-22
2022/05/13 10:03:38;;;;;;;6.70;3.90;;;;;;;18.80;58.52;97165.28;10476984;28;20033;-22
2022/05/13 10:08:49;;;;;;;7.57;3.65;;;;;;;18.78;58.57;97162.75;10476808;28;20482;-22
2022/05/13 10:14:29;;;;;;;4.45;3.20;;;;;;;18.81;58.62;97165.31;10498067;28;20561;-21
2022/05/13 10:19:52;;;;;;;6.25;3.53;;;;;;;18.85;58.20;97163.63;10504775;28;20530;-21
2022/05/13 10:25:01;;;;;;;14.25;7.93;;;;;;;18.91;61.08;97161.13;10477530;28;20026;-21
2022/05/13 10:30:16;;;;;;;13.77;8.18;;;;;;;19.13;60.71;97165.44;10456844;28;20127;-22
2022/05/13 10:35:21;;;;;;;24.15;10.18;;;;;;;19.13;63.29;97170.53;10456796;28;20029;-21
2022/05/13 10:40:22;;;;;;;7.97;4.03;;;;;;;18.98;58.96;97175.53;10458333;28;20051;-22
2022/05/13 10:45:25;;;;;;;6.85;3.25;;;;;;;18.89;58.73;97160.25;10456458;28;20112;-22
2022/05/13 10:50:34;;;;;;;7.05;3.42;;;;;;;18.87;58.50;97172.09;10457092;28;20060;-21
2022/05/13 10:56:06;;;;;;;7.00;3.38;;;;;;;18.82;58.32;97163.63;10478859;28;20249;-22
2022/05/13 11:01:36;;;;;;;6.05;3.33;;;;;;;18.83;58.49;97163.63;10497573;28;20037;-22
2022/05/13 11:06:50;;;;;;;3.42;2.47;;;;;;;18.83;58.22;97167.84;10452955;28;20395;-21
2022/05/13 11:11:55;;;;;;;5.75;3.03;;;;;;;18.81;58.34;97172.91;10453203;28;20040;-21
2022/05/13 11:17:04;;;;;;;3.67;2.60;;;;;;;18.79;58.27;97174.59;10453654;28;20068;-21
2022/05/13 11:22:26;;;;;;;4.07;2.72;;;;;;;18.82;58.43;97173.78;10465252;28;20044;-22
2022/05/13 11:27:48;;;;;;;6.82;4.18;;;;;;;18.94;60.40;97169.63;10456601;28;20112;-21
2022/05/13 11:33:25;;;;;;;7.47;4.57;;;;;;;19.08;60.01;97149.38;10452128;28;20095;-20
2022/05/13 11:38:56;;;;;;;5.30;2.95;;;;;;;19.03;58.01;97159.50;10452797;28;20116;-22
2022/05/13 11:44:03;;;;;;;8.25;3.67;;;;;;;18.92;58.28;97156.06;10451986;28;20476;-21
2022/05/13 11:49:06;;;;;;;4.45;2.83;;;;;;;18.86;58.24;97150.09;10471102;28;20525;-21
2022/05/13 11:54:34;;;;;;;6.03;3.20;;;;;;;18.84;58.40;97149.25;10482796;28;20068;-22
2022/05/13 11:59:37;;;;;;;5.53;3.40;;;;;;;18.84;58.29;97146.72;10450694;28;20527;-21
2022/05/13 12:05:01;;;;;;;6.80;4.38;;;;;;;18.76;58.47;97133.97;10469330;28;20033;-20
2022/05/13 12:10:05;;;;;;;4.53;3.20;;;;;;;18.82;58.38;97134.00;10451102;28;20045;-21
2022/05/13 12:15:08;;;;;;;5.07;3.10;;;;;;;18.81;58.39;97128.94;10450797;28;20041;-21
2022/05/13 12:20:22;;;;;;;15.02;4.43;;;;;;;18.80;58.94;97125.56;10471544;28;20036;-21
2022/05/13 12:25:31;;;;;;;11.30;4.60;;;;;;;18.82;59.03;97123.03;10468812;28;20064;-22
2022/05/13 12:30:39;;;;;;;12.52;6.20;;;;;;;19.06;60.17;97123.13;10451031;28;20072;-22
2022/05/13 12:41:22;;;;;;;5.88;4.00;;;;;;;18.97;58.63;97110.41;10450458;28;20044;-21
2022/05/13 12:46:40;;;;;;;4.35;3.20;;;;;;;18.92;58.33;97115.44;10449356;28;20056;-22
2022/05/13 12:51:46;;;;;;;10.55;3.95;;;;;;;18.85;58.70;97113.72;10484537;28;20036;-21
2022/05/13 12:56:53;;;;;;;7.37;4.17;;;;;;;18.83;58.57;97105.25;10459022;28;20028;-21
2022/05/13 13:01:58;;;;;;;11.32;3.65;;;;;;;18.79;58.82;97098.50;10454542;28;20307;-22
2022/05/13 13:07:08;;;;;;;5.80;3.50;;;;;;;18.80;58.71;97109.47;10449643;28;20036;-22
2022/05/13 13:12:19;;;;;;;6.05;3.80;;;;;;;18.79;58.80;97097.63;10449046;28;20032;-20
2022/05/13 13:17:25;;;;;;;6.25;3.42;;;;;;;18.79;58.91;97097.63;10459400;28;20032;-23
2022/05/13 13:22:32;;;;;;;6.43;4.18;;;;;;;18.79;58.45;97097.63;10490969;28;20040;-21
2022/05/13 13:27:32;;;;;;;7.97;4.05;;;;;;;18.79;58.68;97097.63;10488262;28;20060;-22
2022/05/13 13:32:33;;;;;;;9.70;6.00;;;;;;;19.09;60.62;97092.69;10488785;28;20071;-21
2022/05/13 13:37:35;;;;;;;6.93;4.57;;;;;;;19.20;59.01;97086.00;10457579;28;20033;-22
2022/05/13 13:42:38;;;;;;;8.75;5.15;;;;;;;19.03;58.62;97083.38;10456768;28;20360;-21
2022/05/13 13:47:43;;;;;;;7.00;4.65;;;;;;;18.93;58.66;97085.88;10455947;28;20190;-21
2022/05/13 13:52:43;;;;;;;8.95;5.95;;;;;;;18.88;58.54;97077.38;10455696;28;20076;-22
2022/05/13 13:58:00;;;;;;;17.83;7.70;;;;;;;18.87;58.59;97075.69;10456231;28;20110;-21
2022/05/13 14:03:04;;;;;;;14.60;8.97;;;;;;;18.82;58.85;97059.63;10479161;28;20081;-21
2022/05/13 14:08:06;;;;;;;9.32;5.53;;;;;;;18.86;58.71;97074.00;10466889;28;20366;-21
2022/05/13 14:13:08;;;;;;;14.02;8.18;;;;;;;18.85;58.54;97072.31;10455155;28;20037;-21
2022/05/13 14:18:12;;;;;;;11.90;7.22;;;;;;;18.85;58.86;97062.97;10455513;28;20032;-23
2022/05/13 14:23:16;;;;;;;18.25;9.02;;;;;;;18.88;58.57;97067.22;10463452;28;20031;-21
2022/05/13 14:28:17;;;;;;;21.42;12.27;;;;;;;18.91;61.16;97067.25;10455174;28;20029;-22
2022/05/13 14:33:19;;;;;;;12.45;6.90;;;;;;;19.13;61.23;97058.84;10454805;28;20515;-22
2022/05/13 14:44:01;;;;;;;11.02;4.78;;;;;;;19.08;58.72;97050.41;10453939;28;20059;-21
2022/05/13 14:49:32;;;;;;;15.00;5.40;;;;;;;18.98;58.72;97051.19;10454177;28;20048;-21
2022/05/13 14:54:38;;;;;;;22.38;7.35;;;;;;;18.95;58.59;97054.59;10453929;28;20072;-21
2022/05/13 14:59:45;;;;;;;;;;;;;;;18.88;58.49;97057.09;10454900;28;20043;-21
2022/05/13 15:04:57;;;;;;;11.63;5.32;;;;;;;18.85;58.46;97046.94;10462645;28;19912;-21
2022/05/13 15:09:57;;;;;;;9.38;4.05;;;;;;;18.85;59.00;97049.47;10453314;28;20447;-21
2022/05/13 15:14:58;;;;;;;17.93;6.23;;;;;;;18.85;58.55;97050.31;10451104;28;20033;-21
2022/05/13 15:19:58;;;;;;;11.63;7.30;;;;;;;18.84;58.71;97047.78;10485611;28;20119;-20
2022/05/13 15:24:58;;;;;;;12.97;6.90;;;;;;;18.84;58.52;97055.41;10476921;28;20044;-21
2022/05/13 15:29:59;;;;;;;14.93;9.57;;;;;;;18.92;61.81;97053.72;10453677;28;20378;-22
2022/05/13 15:35:00;;;;;;;7.93;5.80;;;;;;;19.17;60.69;97055.50;10470375;28;20046;-21
2022/05/13 15:40:04;;;;;;;6.30;4.15;;;;;;;19.25;58.51;97048.78;10469169;28;20486;-21
2022/05/13 15:45:05;;;;;;;7.78;5.35;;;;;;;19.10;58.72;97047.00;10493526;28;20618;-21
2022/05/13 15:55:37;;;;;;;12.98;7.05;;;;;;;18.92;58.32;97033.44;10469915;28;20060;-21
2022/05/13 16:00:41;;;;;;;8.65;5.57;;;;;;;18.88;58.45;97037.66;10493951;28;20024;-20
2022/05/13 16:05:41;;;;;;;14.52;7.78;;;;;;;18.88;58.54;97039.31;10454331;28;20033;-21
2022/05/13 16:10:43;;;;;;;14.55;6.88;;;;;;;18.87;58.35;97032.56;10451567;28;20048;-21
2022/05/13 16:15:48;;;;;;;17.47;8.57;;;;;;;18.88;58.38;97044.41;10450970;28;20029;-22
2022/05/13 16:20:51;;;;;;;14.53;8.50;;;;;;;18.89;58.47;97038.47;10484212;28;20330;-20
2022/05/13 16:25:53;;;;;;;13.18;7.72;;;;;;;18.86;58.40;97033.41;10467383;28;20031;-22
2022/05/13 16:30:53;;;;;;;10.90;5.10;;;;;;;18.91;61.81;97036.81;10450360;28;20124;-22
2022/05/13 16:35:54;;;;;;;10.53;4.87;;;;;;;19.17;60.27;97030.13;10450285;28;20043;-22
2022/05/13 16:40:54;;;;;;;11.20;4.07;;;;;;;19.29;58.77;97036.09;10451323;28;20441;-21
2022/05/13 16:45:55;;;;;;;7.90;4.82;;;;;;;19.15;59.45;97032.66;10449989;28;20036;-21
2022/05/13 16:50:55;;;;;;;9.53;5.17;;;;;;;19.03;58.39;97031.75;10450142;28;20071;-21
2022/05/13 16:55:57;;;;;;;13.87;6.43;;;;;;;19.03;58.75;97034.31;10448787;28;20040;-22
2022/05/13 17:00:57;;;;;;;16.05;6.68;;;;;;;18.97;61.23;97031.75;10455875;28;20622;-21
2022/05/13 17:05:58;;;;;;;12.68;6.40;;;;;;;18.97;59.20;97022.44;10490499;28;20078;-22
2022/05/13 17:16:24;;;;;;;17.50;7.90;;;;;;;18.88;58.69;97021.56;10489629;28;20115;-21
2022/05/13 17:21:24;;;;;;;9.77;5.35;;;;;;;18.91;59.03;97029.22;10455700;28;20306;-21
2022/05/13 17:26:26;;;;;;;9.90;6.57;;;;;;;18.87;58.49;97015.66;10479161;28;20067;-21
2022/05/13 17:31:26;;;;;;;8.88;6.50;;;;;;;19.10;61.45;97025.88;10466456;28;20078;-21
2022/05/13 17:36:27;;;;;;;6.13;4.00;;;;;;;19.29;60.63;97030.16;10453077;28;20032;-21
2022/05/13 17:41:28;;;;;;;5.57;3.40;;;;;;;19.23;59.13;97032.69;10460771;28;20732;-20
2022/05/13 17:46:28;;;;;;;10.23;4.68;;;;;;;19.08;58.62;97025.03;10484673;28;20032;-23
2022/05/13 17:51:29;;;;;;;5.40;3.40;;;;;;;19.01;58.77;97028.38;10490290;28;20125;-21
2022/05/13 17:56:29;;;;;;;12.00;3.92;;;;;;;18.99;58.38;97035.16;10467616;28;20864;-22
2022/05/13 18:01:30;;;;;;;5.38;2.92;;;;;;;18.93;58.54;97030.88;10471143;28;20033;-23
2022/05/13 18:06:32;;;;;;;4.90;3.38;;;;;;;18.91;58.58;97035.09;10455263;28;20029;-22
2022/05/13 18:11:32;;;;;;;5.72;2.60;;;;;;;18.88;58.61;97036.78;10467173;28;20039;-22
2022/05/13 18:16:33;;;;;;;6.38;3.03;;;;;;;18.88;58.84;97041.84;10486426;28;20494;-21
2022/05/13 18:21:33;;;;;;;3.90;2.73;;;;;;;18.89;58.87;97038.47;10472512;28;20040;-22
2022/05/13 18:26:35;;;;;;;4.63;3.00;;;;;;;18.88;58.76;97045.25;10462008;28;20326;-21
2022/05/13 18:31:36;;;;;;;6.60;3.40;;;;;;;18.98;60.65;97059.66;10451350;28;20275;-21
2022/05/13 18:36:36;;;;;;;5.80;2.90;;;;;;;19.20;59.67;97055.53;10459084;28;20044;-21
2022/05/13 18:46:55;;;;;;;5.50;2.90;;;;;;;19.05;58.35;97070.69;10487692;28;20020;-21
2022/05/13 18:51:56;;;;;;;3.50;2.67;;;;;;;18.97;58.19;97073.19;10491561;28;20051;-21
2022/05/13 18:56:57;;;;;;;5.95;2.80;;;;;;;18.93;58.39;97075.72;10462268;28;20491;-21
2022/05/13 19:01:57;;;;;;;26.93;3.40;;;;;;;18.91;58.68;97074.88;10478584;28;20032;-22
2022/05/13 19:06:58;;;;;;;6.17;3.23;;;;;;;18.90;58.70;97083.31;10460403;28;20281;-22
2022/05/13 19:11:58;;;;;;;3.88;2.40;;;;;;;18.88;58.56;97083.31;10467445;28;20301;-21
2022/05/13 19:16:58;;;;;;;3.60;2.50;;;;;;;18.87;58.65;97089.22;10470811;28;20029;-22
2022/05/13 19:21:59;;;;;;;3.00;2.40;;;;;;;18.87;58.57;97095.97;10460793;28;20278;-22
2022/05/13 19:26:59;;;;;;;6.17;2.83;;;;;;;18.82;58.58;97088.34;10455604;28;20302;-22
2022/05/13 19:32:00;;;;;;;5.15;2.70;;;;;;;18.87;58.57;97101.06;10449302;28;20033;-21
2022/05/13 19:37:00;;;;;;;6.10;4.00;;;;;;;19.15;60.21;97098.63;10477670;28;20484;-21
2022/05/13 19:42:01;;;;;;;4.53;2.70;;;;;;;19.25;58.63;97097.03;10485029;28;20461;-21
2022/05/13 19:47:02;;;;;;;3.90;3.10;;;;;;;19.12;58.25;97107.94;10485975;28;20186;-25
2022/05/13 19:52:02;;;;;;;3.53;2.55;;;;;;;18.95;58.35;97104.47;10452656;28;20569;-21
2022/05/13 19:57:04;;;;;;;2.65;2.05;;;;;;;18.92;58.61;97104.47;10451824;28;20422;-22
2022/05/13 20:02:05;;;;;;;3.83;2.80;;;;;;;18.90;58.64;97106.13;10467225;28;20041;-22
2022/05/13 20:12:24;;;;;;;3.08;2.33;;;;;;;18.86;58.63;97095.16;10454992;28;20029;-22
2022/05/13 20:17:25;;;;;;;3.65;2.85;;;;;;;18.85;58.79;97107.81;10466064;28;20544;-21
2022/05/13 20:27:44;;;;;;;4.53;2.70;;;;;;;18.84;58.61;97111.19;10490613;28;20033;-22
2022/05/13 20:32:45;;;;;;;2.50;2.20;;;;;;;18.83;58.55;97114.59;10482311;28;20044;-22
2022/05/13 20:37:45;;;;;;;3.00;2.38;;;;;;;19.12;60.18;97125.69;10449867;28;20040;-21
2022/05/13 20:42:46;;;;;;;3.33;2.47;;;;;;;19.26;60.24;97112.22;10449936;28;20032;-21
2022/05/13 20:47:47;;;;;;;4.38;2.25;;;;;;;19.15;58.45;97115.53;10449937;28;20024;-21
2022/05/13 20:52:48;;;;;;;3.63;2.50;;;;;;;19.00;58.22;97112.97;10449860;28;20037;-21
2022/05/13 20:57:49;;;;;;;2.95;2.28;;;;;;;18.94;58.44;97113.78;10481485;28;20298;-22
2022/05/13 21:02:50;;;;;;;4.00;2.72;;;;;;;18.84;58.32;97106.13;10479446;28;20372;-22
2022/05/13 21:07:51;;;;;;;5.10;3.03;;;;;;;18.89;58.42;97119.66;10449228;28;20125;-24
2022/05/13 21:12:53;;;;;;;3.80;2.15;;;;;;;18.87;58.46;97122.22;10450381;28;20086;-21
2022/05/13 21:17:54;;;;;;;3.10;2.15;;;;;;;18.86;58.47;97122.19;10449712;28;20099;-21
2022/05/13 21:22:54;;;;;;;2.88;2.38;;;;;;;18.85;58.35;97128.13;10467904;28;20028;-23
2022/05/13 21:27:55;;;;;;;3.78;2.65;;;;;;;18.86;59.01;97125.59;10449332;28;20029;-21
2022/05/13 21:38:15;;;;;;;7.47;2.80;;;;;;;19.21;61.11;97138.44;10449079;28;20037;-21
2022/05/13 21:43:16;;;;;;;3.45;2.47;;;;;;;19.22;59.84;97135.06;10448197;28;20112;-22
2022/05/13 21:48:16;;;;;;;5.15;3.10;;;;;;;19.08;58.50;97134.16;10449026;28;20470;-21
2022/05/13 21:53:18;;;;;;;4.13;2.10;;;;;;;18.94;58.19;97133.22;10458409;28;20483;-21
2022/05/13 21:58:19;;;;;;;2.67;2.08;;;;;;;18.86;58.53;97129.81;10497822;28;20395;-21
2022/05/13 22:03:24;;;;;;;2.70;2.40;;;;;;;18.88;58.40;97139.13;10486255;28;20040;-21
2022/05/13 22:08:24;;;;;;;3.05;2.50;;;;;;;18.86;58.07;97143.34;10455899;28;20448;-23
2022/05/13 22:13:26;;;;;;;2.63;1.93;;;;;;;18.86;58.44;97134.88;10455830;28;20037;-22
2022/05/13 22:18:27;;;;;;;4.20;2.28;;;;;;;18.84;58.47;97141.66;10455597;28;20802;-22
2022/05/13 22:23:28;;;;;;;2.80;2.50;;;;;;;18.79;58.48;97134.00;10472135;28;20081;-22
2022/05/13 22:28:29;;;;;;;2.55;2.30;;;;;;;18.85;58.40;97145.88;10466501;28;20041;-21
2022/05/13 22:33:29;;;;;;;6.40;2.88;;;;;;;18.86;60.15;97139.94;10454157;28;20037;-20
2022/05/13 22:38:30;;;;;;;2.80;2.10;;;;;;;19.13;59.77;97142.63;10453112;28;20040;-21
2022/05/13 22:43:32;;;;;;;2.15;1.90;;;;;;;19.26;58.72;97146.94;10452388;28;20403;-23
2022/05/13 22:48:36;;;;;;;3.28;2.20;;;;;;;19.12;58.31;97143.47;10453927;28;20517;-22
2022/05/13 22:53:37;;;;;;;2.63;2.00;;;;;;;18.90;58.32;97132.38;10454042;28;20033;-21
2022/05/13 22:58:38;;;;;;;2.15;1.95;;;;;;;18.90;58.26;97141.66;10454235;28;20112;-22
2022/05/13 23:03:38;;;;;;;2.83;2.20;;;;;;;18.88;58.41;97138.25;10469081;28;20394;-21
2022/05/13 23:13:59;;;;;;;3.03;2.30;;;;;;;18.85;58.29;97138.25;10453424;28;20039;-21
2022/05/13 23:19:01;;;;;;;2.72;1.92;;;;;;;18.85;58.02;97140.81;10453340;28;20048;-22
2022/05/13 23:24:03;;;;;;;3.10;2.05;;;;;;;18.84;58.37;97137.41;10471920;28;20041;-22
2022/05/13 23:29:03;;;;;;;2.72;2.05;;;;;;;18.82;58.38;97121.31;10453012;28;20059;-21
2022/05/13 23:34:04;;;;;;;4.03;2.08;;;;;;;18.81;58.34;97121.31;10452315;28;20141;-22
2022/05/13 23:39:06;;;;;;;2.77;2.20;;;;;;;19.15;59.82;97128.22;10452962;28;20036;-21
2022/05/13 23:44:06;;;;;;;3.05;2.08;;;;;;;19.24;58.74;97118.16;10452079;28;20112;-22
2022/05/13 23:49:06;;;;;;;3.30;2.00;;;;;;;19.11;58.25;97129.06;10452497;28;20558;-22
2022/05/13 23:59:27;;;;;;;1.95;1.75;;;;;;;18.90;58.24;97121.34;10452448;28;20044;-23
